Time;durP1;ratioP1;P1;durP2;ratioP2;P2;SDS_P1;SDS_P2;PMS_P1;PMS_P2;Temp;Humidity;BMP_temperature;BMP_pressure;BME280_temperature;BME280_humidity;BME280_pressure;Samples;Min_cycle;Max_cycle;Signal;HPM_P1;HPM_P2
2021/12/16 00:01:45;;;;;;;9.20;8.90;;;5.90;99.90;;;;;;5122815;28;20217;-84
2021/12/16 00:07:08;;;;;;;8.70;8.50;;;5.70;99.90;;;;;;5063333;28;20221;-83
2021/12/16 00:09:46;;;;;;;8.80;8.60;;;5.70;99.90;;;;;;5120820;28;20229;-83
2021/12/16 00:29:31;;;;;;;9.00;8.70;;;5.70;99.90;;;;;;5121016;28;20209;-83
2021/12/16 00:32:05;;;;;;;8.90;8.70;;;5.80;99.90;;;;;;5120351;28;20224;-83
2021/12/16 00:34:36;;;;;;;8.90;8.70;;;5.80;99.90;;;;;;5119738;28;20232;-83
2021/12/16 00:37:06;;;;;;;9.10;8.80;;;5.90;99.90;;;;;;5119363;28;20233;-83
2021/12/16 00:39:36;;;;;;;8.70;8.50;;;5.90;99.90;;;;;;5120020;28;20229;-83
2021/12/16 00:42:12;;;;;;;8.70;8.50;;;5.90;99.90;;;;;;5119665;28;20233;-82
2021/12/16 00:47:34;;;;;;;9.40;9.10;;;6.00;99.90;;;;;;5120350;28;20229;-83
2021/12/16 00:50:21;;;;;;;9.10;8.80;;;6.00;99.90;;;;;;5120289;28;20243;-83
2021/12/16 00:55:44;;;;;;;9.20;8.90;;;5.90;99.90;;;;;;5099467;28;20205;-83
2021/12/16 00:58:12;;;;;;;9.00;8.70;;;5.90;99.90;;;;;;5098665;28;20233;-83
2021/12/16 01:00:49;;;;;;;8.77;8.57;;;5.90;99.90;;;;;;5099200;28;20312;-83
2021/12/16 01:03:39;;;;;;;8.70;8.50;;;5.90;99.90;;;;;;5178106;27;20623;-83
2021/12/16 01:06:40;;;;;;;8.90;8.70;;;6.00;99.90;;;;;;5176205;27;20234;-83
2021/12/16 01:34:23;;;;;;;9.10;8.80;;;5.90;99.90;;;;;;5135807;27;20200;-83
2021/12/16 01:40:15;;;;;;;9.00;8.70;;;5.90;99.90;;;;;;5096084;27;20268;-83
2021/12/16 01:46:12;;;;;;;9.07;8.77;;;5.80;99.90;;;;;;5135529;27;20212;-83
2021/12/16 01:51:34;;;;;;;8.97;8.70;;;5.70;99.90;;;;;;5135175;27;20220;-83
2021/12/16 01:54:39;;;;;;;8.60;8.40;;;5.70;99.90;;;;;;5142227;27;20222;-83
2021/12/16 01:57:15;;;;;;;8.70;8.50;;;5.80;99.90;;;;;;5138053;27;20289;-83
2021/12/16 01:59:47;;;;;;;8.53;8.33;;;5.80;99.90;;;;;;5137782;27;20253;-83
2021/12/16 02:02:32;;;;;;;8.50;8.30;;;5.90;99.90;;;;;;5134911;27;20231;-83
2021/12/16 02:05:20;;;;;;;8.80;8.60;;;5.80;99.90;;;;;;5138084;27;20228;-82
2021/12/16 02:08:13;;;;;;;8.97;8.67;;;5.80;99.90;;;;;;5134407;27;20224;-83
2021/12/16 02:10:54;;;;;;;8.60;8.40;;;5.90;99.90;;;;;;5135144;27;20251;-82
2021/12/16 02:13:49;;;;;;;8.63;8.43;;;5.80;99.90;;;;;;5135649;27;20237;-83
2021/12/16 02:33:37;;;;;;;8.93;8.63;;;5.60;99.90;;;;;;5120533;27;20256;-83
2021/12/16 02:36:22;;;;;;;8.60;8.40;;;5.60;99.90;;;;;;5122167;27;20228;-82
2021/12/16 02:39:01;;;;;;;8.63;8.43;;;5.50;99.90;;;;;;5119942;27;20235;-82
2021/12/16 02:41:29;;;;;;;9.00;8.70;;;5.40;99.90;;;;;;5122271;27;20233;-82
2021/12/16 02:49:44;;;;;;;9.30;9.00;;;5.20;99.90;;;;;;5121305;28;20225;-83
2021/12/16 02:52:13;;;;;;;9.40;9.10;;;5.10;99.90;;;;;;5121279;27;20228;-83
2021/12/16 02:54:45;;;;;;;9.20;8.90;;;5.10;99.90;;;;;;5119785;27;20312;-84
2021/12/16 02:57:13;;;;;;;9.33;9.03;;;5.10;99.90;;;;;;5119251;27;20242;-83
2021/12/16 02:59:42;;;;;;;9.10;8.80;;;5.20;99.90;;;;;;5124385;27;20232;-83
2021/12/16 03:02:15;;;;;;;9.30;9.00;;;5.20;99.90;;;;;;5123607;27;20248;-83
2021/12/16 03:04:46;;;;;;;9.20;8.90;;;5.30;99.90;;;;;;5123350;27;20239;-84
2021/12/16 03:07:15;;;;;;;9.17;8.87;;;5.30;99.90;;;;;;5122583;27;20237;-84
2021/12/16 03:10:38;;;;;;;9.33;9.03;;;5.30;99.90;;;;;;5122200;27;20256;-82
2021/12/16 03:13:09;;;;;;;9.40;9.10;;;5.30;99.90;;;;;;5120008;28;20229;-83
2021/12/16 03:15:58;;;;;;;9.00;8.70;;;5.30;99.90;;;;;;5119906;27;20228;-84
2021/12/16 03:18:36;;;;;;;9.27;8.97;;;5.40;99.90;;;;;;5125427;27;20236;-83
2021/12/16 03:21:14;;;;;;;9.27;8.97;;;5.40;99.90;;;;;;5121685;27;20232;-83
2021/12/16 03:23:55;;;;;;;9.20;8.90;;;5.50;99.90;;;;;;5120255;27;20271;-84
2021/12/16 03:32:05;;;;;;;9.00;8.70;;;5.50;99.90;;;;;;5121997;27;20247;-83
2021/12/16 03:34:46;;;;;;;8.67;8.47;;;5.50;99.90;;;;;;5118911;27;20216;-83
2021/12/16 03:37:19;;;;;;;9.30;9.00;;;5.50;99.90;;;;;;5140800;22;20289;-85
2021/12/16 03:39:53;;;;;;;9.10;8.80;;;5.50;99.90;;;;;;5122737;27;20236;-85
2021/12/16 03:42:29;;;;;;;9.10;8.80;;;5.50;99.90;;;;;;5123120;27;20235;-85
2021/12/16 03:45:06;;;;;;;9.20;8.90;;;5.50;99.90;;;;;;5124214;28;20223;-85
2021/12/16 03:47:42;;;;;;;9.50;9.20;;;5.50;99.90;;;;;;5124140;27;20232;-85
2021/12/16 03:50:14;;;;;;;9.20;8.90;;;5.50;99.90;;;;;;5125341;28;20229;-85
2021/12/16 03:52:42;;;;;;;9.33;9.03;;;5.50;99.90;;;;;;5124476;28;20296;-85
2021/12/16 03:55:12;;;;;;;9.20;8.90;;;5.60;99.90;;;;;;5124515;28;20274;-83
2021/12/16 03:57:41;;;;;;;9.40;9.10;;;5.60;99.90;;;;;;5124635;28;20333;-83
2021/12/16 04:00:15;;;;;;;9.40;9.10;;;5.60;99.90;;;;;;5124745;27;20236;-83
2021/12/16 04:02:44;;;;;;;9.50;9.20;;;5.70;99.90;;;;;;5123464;27;20255;-82
2021/12/16 04:05:16;;;;;;;9.40;9.10;;;5.70;99.90;;;;;;5124380;28;20228;-83
2021/12/16 04:07:45;;;;;;;9.50;9.20;;;5.70;99.90;;;;;;5125104;28;20232;-83
2021/12/16 04:10:20;;;;;;;9.57;9.27;;;5.70;99.90;;;;;;5125660;28;20243;-83
2021/12/16 04:12:51;;;;;;;9.30;9.00;;;5.70;99.90;;;;;;5125403;28;20224;-83
2021/12/16 04:15:18;;;;;;;9.30;9.00;;;5.70;99.90;;;;;;5124217;28;20323;-83
2021/12/16 04:17:46;;;;;;;9.50;9.20;;;5.80;99.90;;;;;;5123826;27;20233;-82
2021/12/16 04:20:17;;;;;;;9.37;9.07;;;5.80;99.90;;;;;;5123995;28;20228;-83
2021/12/16 04:22:47;;;;;;;9.17;8.87;;;5.80;99.90;;;;;;5124794;28;20294;-83
2021/12/16 04:25:20;;;;;;;9.40;9.10;;;5.70;99.90;;;;;;5123803;28;20225;-84
2021/12/16 04:27:53;;;;;;;9.27;8.97;;;5.70;99.90;;;;;;5123548;28;20235;-83
2021/12/16 04:30:24;;;;;;;9.20;8.90;;;5.80;99.90;;;;;;5123169;28;20236;-83
2021/12/16 04:32:53;;;;;;;9.20;8.90;;;5.70;99.90;;;;;;5123568;28;20231;-84
2021/12/16 04:35:22;;;;;;;9.20;8.90;;;5.70;99.90;;;;;;5123420;28;20217;-84
2021/12/16 04:37:51;;;;;;;8.87;8.67;;;5.70;99.90;;;;;;5122237;28;20245;-84
2021/12/16 04:40:20;;;;;;;9.10;8.80;;;5.70;99.90;;;;;;5127458;28;20282;-83
2021/12/16 04:42:52;;;;;;;8.80;8.60;;;5.80;99.90;;;;;;5124969;27;20272;-84
2021/12/16 04:45:22;;;;;;;8.70;8.50;;;5.80;99.90;;;;;;5124375;28;20224;-84
2021/12/16 04:47:50;;;;;;;8.70;8.50;;;5.80;99.90;;;;;;5124193;28;20528;-84
2021/12/16 04:50:19;;;;;;;8.77;8.57;;;5.80;99.90;;;;;;5124404;27;20228;-83
2021/12/16 04:52:48;;;;;;;8.87;8.67;;;5.80;99.90;;;;;;5126524;28;20212;-84
2021/12/16 04:55:19;;;;;;;9.10;8.80;;;5.80;99.90;;;;;;5130474;28;20224;-84
2021/12/16 04:57:50;;;;;;;8.60;8.40;;;5.80;99.90;;;;;;5124395;28;20312;-84
2021/12/16 05:00:22;;;;;;;9.10;8.80;;;5.80;99.90;;;;;;5124040;27;20286;-84
2021/12/16 05:02:50;;;;;;;8.80;8.60;;;5.80;99.90;;;;;;5124351;28;20316;-84
2021/12/16 05:05:20;;;;;;;9.07;8.77;;;5.80;99.90;;;;;;5125893;28;20234;-83
2021/12/16 05:07:48;;;;;;;9.10;8.80;;;5.80;99.90;;;;;;5130436;28;20235;-83
2021/12/16 05:10:18;;;;;;;9.30;9.00;;;5.70;99.90;;;;;;5134364;28;20236;-83
2021/12/16 05:12:50;;;;;;;9.10;8.80;;;5.70;99.90;;;;;;5134038;28;20217;-83
2021/12/16 05:15:24;;;;;;;9.10;8.80;;;5.70;99.90;;;;;;5133190;28;20270;-84
2021/12/16 05:17:54;;;;;;;8.83;8.60;;;5.70;99.90;;;;;;5125129;28;20229;-83
2021/12/16 05:20:26;;;;;;;9.00;8.70;;;5.70;99.90;;;;;;5125480;28;20244;-84
2021/12/16 05:26:07;;;;;;;8.57;8.37;;;5.70;99.90;;;;;;5125349;28;20201;-84
2021/12/16 05:28:37;;;;;;;8.83;8.63;;;5.70;99.90;;;;;;5133868;28;20221;-84
2021/12/16 05:31:05;;;;;;;8.83;8.60;;;5.70;99.90;;;;;;5135822;28;20235;-84
2021/12/16 05:33:33;;;;;;;8.80;8.60;;;5.60;99.90;;;;;;5133537;28;20241;-83
2021/12/16 05:36:01;;;;;;;9.00;8.70;;;5.60;99.90;;;;;;5126225;28;20232;-83
2021/12/16 05:38:31;;;;;;;8.77;8.57;;;5.60;99.90;;;;;;5128167;28;20296;-84
2021/12/16 05:41:00;;;;;;;8.73;8.53;;;5.60;99.90;;;;;;5138568;28;20225;-83
2021/12/16 05:43:29;;;;;;;8.47;8.27;;;5.70;99.90;;;;;;5139574;28;20228;-84
2021/12/16 05:46:01;;;;;;;8.50;8.30;;;5.60;99.90;;;;;;5138282;28;20239;-84
2021/12/16 05:48:34;;;;;;;8.43;8.23;;;5.60;99.90;;;;;;5139561;27;20217;-83
2021/12/16 05:51:08;;;;;;;8.67;8.47;;;5.50;99.90;;;;;;5143502;28;20209;-83
2021/12/16 05:53:37;;;;;;;8.43;8.23;;;5.50;99.90;;;;;;5143247;28;20207;-83
2021/12/16 05:56:06;;;;;;;8.60;8.40;;;5.40;99.90;;;;;;5137699;28;20247;-83
2021/12/16 05:58:36;;;;;;;8.53;8.33;;;5.40;99.90;;;;;;5136667;27;20224;-84
2021/12/16 06:01:09;;;;;;;8.70;8.50;;;5.30;99.90;;;;;;5136690;28;20239;-83
2021/12/16 06:03:38;;;;;;;9.30;9.00;;;5.30;99.90;;;;;;5130726;28;20232;-84
2021/12/16 06:06:06;;;;;;;8.87;8.57;;;5.20;99.90;;;;;;5130949;28;20233;-84
2021/12/16 06:08:35;;;;;;;8.90;8.60;;;5.20;99.90;;;;;;5130385;28;20243;-84
2021/12/16 06:11:17;;;;;;;8.67;8.47;;;5.20;99.90;;;;;;5129920;28;20236;-84
2021/12/16 06:13:59;;;;;;;8.70;8.50;;;5.20;99.90;;;;;;5130527;28;20280;-84
2021/12/16 06:27:33;;;;;;;9.00;8.70;;;5.20;99.90;;;;;;5127221;28;20217;-84
2021/12/16 06:30:01;;;;;;;8.70;8.50;;;5.20;99.90;;;;;;5127153;28;20221;-84
2021/12/16 06:32:30;;;;;;;9.10;8.80;;;5.30;99.90;;;;;;5126609;28;20239;-84
2021/12/16 06:34:58;;;;;;;8.70;8.50;;;5.40;99.90;;;;;;5126321;28;20238;-84
2021/12/16 06:37:26;;;;;;;8.57;8.37;;;5.40;99.90;;;;;;5125865;28;20290;-84
2021/12/16 06:39:54;;;;;;;9.07;8.77;;;5.50;99.90;;;;;;5125469;28;20237;-84
2021/12/16 06:42:23;;;;;;;8.73;8.53;;;5.50;99.90;;;;;;5126217;27;20224;-84
2021/12/16 06:44:55;;;;;;;9.00;8.70;;;5.50;99.90;;;;;;5125868;28;20225;-83
2021/12/16 06:47:30;;;;;;;9.17;8.87;;;5.60;99.90;;;;;;5126265;28;20233;-84
2021/12/16 06:49:59;;;;;;;9.07;8.77;;;5.60;99.90;;;;;;5133138;28;20232;-84
2021/12/16 06:52:34;;;;;;;8.80;8.60;;;5.60;99.90;;;;;;5128387;28;20225;-84
2021/12/16 06:55:10;;;;;;;8.83;8.63;;;5.60;99.90;;;;;;5126690;27;20293;-84
2021/12/16 06:57:43;;;;;;;8.97;8.67;;;5.60;99.90;;;;;;5126970;28;20228;-84
2021/12/16 07:00:21;;;;;;;10.30;10.00;;;5.60;99.90;;;;;;5124360;27;20398;-84
2021/12/16 07:03:00;;;;;;;10.00;9.70;;;5.70;99.90;;;;;;5124706;27;20283;-84
2021/12/16 07:05:33;;;;;;;10.20;9.90;;;5.70;99.90;;;;;;5122752;27;20278;-83
2021/12/16 07:08:02;;;;;;;10.07;9.77;;;5.80;99.90;;;;;;5124880;28;20240;-86
2021/12/16 07:10:30;;;;;;;9.90;9.60;;;5.90;99.90;;;;;;5123011;27;20263;-86
2021/12/16 07:13:15;;;;;;;9.93;9.63;;;5.90;99.90;;;;;;5124417;28;20229;-86
2021/12/16 07:15:44;;;;;;;9.63;9.33;;;5.90;99.90;;;;;;5122805;28;20339;-87
2021/12/16 07:18:12;;;;;;;10.50;10.20;;;5.90;99.90;;;;;;5121687;28;20414;-85
2021/12/16 07:20:42;;;;;;;10.13;9.83;;;5.90;99.90;;;;;;5123426;28;20233;-86
2021/12/16 07:23:12;;;;;;;10.50;10.20;;;5.90;99.90;;;;;;5121915;27;20263;-84
2021/12/16 07:25:42;;;;;;;10.37;10.07;;;5.90;99.90;;;;;;5120887;27;20236;-85
2021/12/16 07:28:10;;;;;;;10.20;9.90;;;5.80;99.90;;;;;;5121375;28;20233;-84
2021/12/16 07:30:41;;;;;;;10.50;10.20;;;5.80;99.90;;;;;;5120338;28;20240;-84
2021/12/16 07:33:11;;;;;;;9.83;9.53;;;5.70;99.90;;;;;;5122795;27;20221;-84
2021/12/16 07:35:42;;;;;;;10.00;9.70;;;5.70;99.90;;;;;;5123576;27;20253;-86
2021/12/16 07:38:11;;;;;;;9.90;9.60;;;5.60;99.90;;;;;;5121947;28;20241;-87
2021/12/16 07:40:42;;;;;;;10.17;9.87;;;5.60;99.90;;;;;;5123645;28;20241;-85
2021/12/16 07:45:58;;;;;;;9.70;9.40;;;5.60;99.90;;;;;;5123584;28;20288;-86
2021/12/16 07:48:28;;;;;;;9.80;9.50;;;5.50;99.90;;;;;;5126826;27;20232;-86
2021/12/16 07:51:03;;;;;;;9.80;9.50;;;5.50;99.90;;;;;;5123980;28;20233;-84
2021/12/16 07:53:31;;;;;;;9.87;9.57;;;5.40;99.90;;;;;;5124433;28;20216;-85
2021/12/16 07:55:59;;;;;;;10.20;9.90;;;5.30;99.90;;;;;;5122965;28;20220;-84
2021/12/16 07:58:27;;;;;;;10.17;9.87;;;5.30;99.90;;;;;;5122241;27;20228;-85
2021/12/16 08:00:56;;;;;;;10.07;9.77;;;5.30;99.90;;;;;;5123166;28;20229;-84
2021/12/16 08:03:26;;;;;;;9.80;9.50;;;5.30;99.90;;;;;;5122748;28;20236;-84
2021/12/16 08:05:59;;;;;;;9.50;9.20;;;5.30;99.90;;;;;;5122650;28;20232;-86
2021/12/16 08:08:27;;;;;;;9.73;9.43;;;5.40;99.90;;;;;;5122718;28;20232;-84
2021/12/16 08:10:58;;;;;;;9.53;9.23;;;5.40;99.90;;;;;;5117952;28;20233;-84
2021/12/16 08:13:35;;;;;;;9.80;9.50;;;5.50;99.90;;;;;;5122990;28;20237;-85
2021/12/16 08:16:03;;;;;;;9.60;9.30;;;5.60;99.90;;;;;;5101786;28;20228;-85
2021/12/16 08:18:32;;;;;;;9.60;9.30;;;5.60;99.90;;;;;;5106152;28;20229;-84
2021/12/16 08:21:02;;;;;;;9.60;9.30;;;5.60;99.90;;;;;;5102456;28;20229;-84
2021/12/16 08:23:30;;;;;;;9.50;9.20;;;5.60;99.90;;;;;;5103508;28;20693;-84
2021/12/16 08:26:00;;;;;;;9.73;9.43;;;5.70;99.90;;;;;;5103876;28;20233;-85
2021/12/16 08:28:28;;;;;;;9.60;9.30;;;5.70;99.90;;;;;;5102687;28;20244;-86
2021/12/16 08:30:57;;;;;;;9.60;9.30;;;5.70;99.90;;;;;;5113412;28;20247;-83
2021/12/16 08:33:24;;;;;;;9.73;9.43;;;5.80;99.90;;;;;;5117541;28;20255;-79
2021/12/16 08:35:56;;;;;;;9.53;9.23;;;5.90;99.90;;;;;;5114075;27;20237;-78
2021/12/16 08:38:27;;;;;;;9.60;9.30;;;5.90;99.90;;;;;;5116429;28;20240;-82
2021/12/16 08:41:05;;;;;;;9.47;9.17;;;6.00;99.90;;;;;;5124181;28;20595;-83
2021/12/16 08:43:33;;;;;;;9.70;9.40;;;6.00;99.90;;;;;;5119838;27;20289;-83
2021/12/16 08:46:01;;;;;;;9.90;9.60;;;6.00;99.90;;;;;;5126619;28;20229;-86
2021/12/16 08:48:32;;;;;;;9.60;9.30;;;6.00;99.90;;;;;;5123474;27;20237;-84
2021/12/16 08:51:00;;;;;;;9.60;9.30;;;6.00;99.90;;;;;;5122503;28;20286;-84
2021/12/16 08:53:30;;;;;;;10.00;9.70;;;6.00;99.90;;;;;;5122616;27;20233;-83
2021/12/16 08:55:58;;;;;;;10.10;9.80;;;6.00;99.90;;;;;;5122469;27;20251;-84
2021/12/16 08:58:27;;;;;;;9.80;9.50;;;6.00;99.90;;;;;;5126187;28;20243;-85
2021/12/16 09:00:59;;;;;;;9.40;9.10;;;6.00;99.90;;;;;;5126942;27;20255;-84
2021/12/16 09:03:30;;;;;;;9.40;9.10;;;6.10;99.90;;;;;;5124042;28;20216;-84
2021/12/16 09:05:58;;;;;;;9.73;9.43;;;6.10;99.90;;;;;;5123185;28;20256;-84
2021/12/16 09:08:28;;;;;;;9.90;9.60;;;6.10;99.90;;;;;;5122965;28;20255;-84
2021/12/16 09:10:57;;;;;;;9.73;9.43;;;6.10;99.90;;;;;;5122502;27;20237;-84
2021/12/16 09:13:25;;;;;;;9.70;9.40;;;6.20;99.90;;;;;;5123796;28;20235;-84
2021/12/16 09:16:02;;;;;;;9.80;9.50;;;6.20;99.90;;;;;;5121669;28;20236;-83
2021/12/16 09:18:33;;;;;;;9.63;9.33;;;6.20;99.90;;;;;;5121451;28;20233;-84
2021/12/16 09:21:05;;;;;;;9.80;9.50;;;6.30;99.90;;;;;;5122126;28;20228;-83
2021/12/16 09:23:34;;;;;;;9.80;9.50;;;6.30;99.90;;;;;;5122369;27;20335;-83
2021/12/16 09:26:03;;;;;;;9.80;9.50;;;6.30;99.90;;;;;;5125674;27;20228;-84
2021/12/16 09:28:31;;;;;;;9.80;9.50;;;6.30;99.90;;;;;;5125129;28;20224;-83
2021/12/16 09:30:59;;;;;;;10.03;9.73;;;6.30;99.90;;;;;;5127244;28;20229;-84
2021/12/16 09:33:28;;;;;;;10.00;9.70;;;6.30;99.90;;;;;;5126424;28;20228;-84
2021/12/16 09:36:00;;;;;;;9.97;9.67;;;6.40;99.90;;;;;;5124685;28;20225;-83
2021/12/16 09:38:29;;;;;;;10.10;9.80;;;6.30;99.90;;;;;;5154675;22;20219;-83
2021/12/16 09:46:30;;;;;;;9.90;9.60;;;6.30;99.90;;;;;;5139464;28;20229;-81
2021/12/16 09:48:59;;;;;;;9.90;9.60;;;6.40;99.90;;;;;;5132220;28;20286;-82
2021/12/16 09:54:18;;;;;;;10.03;9.73;;;6.30;99.90;;;;;;5127150;28;20315;-81
2021/12/16 09:56:54;;;;;;;9.80;9.50;;;6.30;99.90;;;;;;5126343;28;20221;-81
2021/12/16 09:59:25;;;;;;;9.67;9.37;;;6.30;99.90;;;;;;5126399;28;20241;-82
2021/12/16 10:02:00;;;;;;;9.67;9.37;;;6.40;99.90;;;;;;5126735;28;20286;-81
2021/12/16 10:04:31;;;;;;;9.70;9.40;;;6.40;99.90;;;;;;5126021;28;20275;-81
2021/12/16 10:07:03;;;;;;;9.70;9.40;;;6.50;99.90;;;;;;5125438;28;20236;-81
2021/12/16 10:09:31;;;;;;;9.50;9.20;;;6.50;99.90;;;;;;5126522;28;20233;-81
2021/12/16 10:12:12;;;;;;;9.60;9.30;;;6.50;99.90;;;;;;5126717;28;20235;-82
2021/12/16 10:14:59;;;;;;;9.47;9.17;;;6.50;99.90;;;;;;5126229;28;20225;-81
2021/12/16 10:17:32;;;;;;;9.73;9.43;;;6.60;99.90;;;;;;5126646;28;20274;-82
2021/12/16 10:20:06;;;;;;;9.70;9.40;;;6.60;99.90;;;;;;5127050;28;20221;-82
2021/12/16 10:22:39;;;;;;;9.60;9.30;;;6.60;99.90;;;;;;5126267;28;20232;-83
2021/12/16 10:25:32;;;;;;;9.60;9.30;;;6.60;99.90;;;;;;5125218;28;20240;-82
2021/12/16 10:28:10;;;;;;;9.67;9.37;;;6.60;99.90;;;;;;5125094;28;20267;-81
2021/12/16 10:30:58;;;;;;;9.80;9.50;;;6.60;99.90;;;;;;5125470;28;20228;-82
2021/12/16 10:33:32;;;;;;;10.00;9.70;;;6.60;99.90;;;;;;5125197;28;20240;-82
2021/12/16 10:36:07;;;;;;;9.87;9.57;;;6.60;99.90;;;;;;5124132;27;20228;-82
2021/12/16 10:38:40;;;;;;;10.07;9.77;;;6.60;99.90;;;;;;5123534;28;20240;-81
2021/12/16 10:41:10;;;;;;;9.77;9.47;;;6.60;99.90;;;;;;5127033;28;20221;-81
2021/12/16 10:43:58;;;;;;;9.90;9.60;;;6.60;99.90;;;;;;5125200;28;20229;-82
2021/12/16 10:46:36;;;;;;;10.00;9.70;;;6.60;99.90;;;;;;5124608;28;20281;-82
2021/12/16 10:49:14;;;;;;;9.87;9.57;;;6.60;99.90;;;;;;5123916;28;20289;-82
2021/12/16 10:51:45;;;;;;;9.70;9.40;;;6.60;99.90;;;;;;5124080;28;20321;-82
2021/12/16 10:54:21;;;;;;;9.63;9.33;;;6.60;99.90;;;;;;5123887;28;20232;-82
2021/12/16 10:57:09;;;;;;;9.60;9.30;;;6.60;99.90;;;;;;5136829;27;20228;-82
2021/12/16 10:59:54;;;;;;;9.80;9.50;;;6.60;99.90;;;;;;5121772;28;20231;-81
2021/12/16 11:02:25;;;;;;;9.77;9.47;;;6.70;99.90;;;;;;5123229;28;20248;-80
2021/12/16 11:04:56;;;;;;;9.33;9.03;;;6.70;99.90;;;;;;5122838;28;20232;-82
2021/12/16 11:07:34;;;;;;;9.40;9.10;;;6.80;99.90;;;;;;5123434;28;20251;-82
2021/12/16 11:10:10;;;;;;;9.37;9.07;;;6.80;99.90;;;;;;5124478;28;20228;-81
2021/12/16 11:12:49;;;;;;;9.40;9.10;;;6.80;99.90;;;;;;5130900;27;20266;-82
2021/12/16 11:15:29;;;;;;;9.70;9.40;;;6.70;99.90;;;;;;5138849;28;20240;-82
2021/12/16 11:18:06;;;;;;;9.87;9.57;;;6.80;99.90;;;;;;5126152;28;20232;-81
2021/12/16 11:20:44;;;;;;;9.90;9.60;;;6.90;99.90;;;;;;5125266;28;20232;-82
2021/12/16 11:23:15;;;;;;;9.60;9.30;;;7.00;99.90;;;;;;5124856;28;20212;-82
2021/12/16 11:25:51;;;;;;;9.50;9.20;;;7.30;99.90;;;;;;5124371;28;20225;-82
2021/12/16 11:28:22;;;;;;;9.50;9.20;;;7.40;99.90;;;;;;5123189;28;20289;-82
2021/12/16 11:30:58;;;;;;;9.63;9.33;;;7.50;99.90;;;;;;5123520;28;20256;-82
2021/12/16 11:33:38;;;;;;;9.33;9.03;;;7.60;99.90;;;;;;5123325;28;20216;-82
2021/12/16 11:36:15;;;;;;;9.50;9.20;;;7.70;99.90;;;;;;5123313;28;20239;-83
2021/12/16 11:38:47;;;;;;;9.30;9.00;;;7.70;99.90;;;;;;5123707;28;20346;-82
2021/12/16 11:41:31;;;;;;;9.40;9.10;;;7.70;99.90;;;;;;5122918;28;20232;-82
2021/12/16 11:44:12;;;;;;;9.63;9.33;;;7.70;99.90;;;;;;5123417;28;20275;-83
2021/12/16 11:46:47;;;;;;;9.63;9.33;;;7.70;99.90;;;;;;5121895;27;20244;-83
2021/12/16 11:49:26;;;;;;;9.50;9.20;;;7.70;99.90;;;;;;5122555;28;20258;-82
2021/12/16 11:52:05;;;;;;;9.80;9.50;;;7.70;99.90;;;;;;5122230;28;20246;-82
2021/12/16 11:54:44;;;;;;;9.83;9.53;;;7.70;99.90;;;;;;5121814;28;20221;-82
2021/12/16 11:57:23;;;;;;;9.60;9.30;;;7.70;99.90;;;;;;5122827;28;20228;-82
2021/12/16 11:59:59;;;;;;;9.57;9.27;;;7.80;99.90;;;;;;5121869;28;20262;-82
2021/12/16 12:02:37;;;;;;;9.30;9.00;;;7.70;99.90;;;;;;5122742;28;20243;-83
2021/12/16 12:05:31;;;;;;;9.50;9.20;;;7.70;99.90;;;;;;5123370;28;20274;-82
2021/12/16 12:08:20;;;;;;;9.17;8.87;;;7.60;99.90;;;;;;5124985;28;20323;-81
2021/12/16 12:10:53;;;;;;;9.43;9.13;;;7.70;99.90;;;;;;5123544;28;20267;-82
2021/12/16 12:13:25;;;;;;;9.20;8.90;;;7.70;99.90;;;;;;5122828;28;20233;-81
2021/12/16 12:16:01;;;;;;;9.47;9.17;;;7.80;99.90;;;;;;5122339;28;20229;-81
2021/12/16 12:18:41;;;;;;;9.40;9.10;;;7.80;99.90;;;;;;5122536;28;20244;-81
2021/12/16 12:21:34;;;;;;;9.40;9.10;;;7.90;99.90;;;;;;5123445;28;20232;-82
2021/12/16 12:24:07;;;;;;;9.60;9.30;;;7.90;99.90;;;;;;5123026;28;20258;-81
2021/12/16 12:26:38;;;;;;;9.40;9.10;;;7.90;99.90;;;;;;5123310;28;20229;-81
2021/12/16 12:29:11;;;;;;;9.33;9.03;;;7.90;99.90;;;;;;5122535;28;20236;-81
2021/12/16 12:31:44;;;;;;;9.30;9.00;;;7.90;99.90;;;;;;5123171;28;20294;-81
2021/12/16 12:34:14;;;;;;;9.20;8.90;;;8.00;99.90;;;;;;5122883;28;20217;-82
2021/12/16 12:36:43;;;;;;;9.30;9.00;;;8.00;99.90;;;;;;5122873;28;20268;-81
2021/12/16 12:39:15;;;;;;;9.17;8.87;;;8.10;99.90;;;;;;5122713;28;20254;-81
2021/12/16 12:41:45;;;;;;;9.20;8.90;;;8.10;99.90;;;;;;5124036;28;20330;-81
2021/12/16 12:44:13;;;;;;;9.03;8.73;;;8.20;99.90;;;;;;5138949;28;20205;-81
2021/12/16 12:46:42;;;;;;;8.83;8.63;;;8.20;99.90;;;;;;5139663;28;20232;-81
2021/12/16 12:49:16;;;;;;;9.10;8.80;;;8.30;99.90;;;;;;5126767;28;20236;-81
2021/12/16 12:51:48;;;;;;;9.33;9.03;;;8.30;99.90;;;;;;5134436;28;20229;-82
2021/12/16 12:54:23;;;;;;;9.40;9.10;;;8.30;99.90;;;;;;5127876;28;20254;-82
2021/12/16 12:56:57;;;;;;;8.87;8.67;;;8.20;99.90;;;;;;5123719;28;20301;-82
2021/12/16 12:59:37;;;;;;;8.83;8.63;;;8.20;99.90;;;;;;5124056;28;20240;-82
2021/12/16 13:02:17;;;;;;;8.70;8.50;;;8.30;99.90;;;;;;5111203;28;20323;-83
2021/12/16 13:04:57;;;;;;;9.27;8.97;;;8.40;99.90;;;;;;5129948;28;20239;-82
2021/12/16 13:07:36;;;;;;;8.87;8.67;;;8.40;99.90;;;;;;5129904;28;20221;-82
2021/12/16 13:10:11;;;;;;;8.93;8.73;;;8.40;99.90;;;;;;5129815;28;20232;-82
2021/12/16 13:12:44;;;;;;;9.37;9.07;;;8.40;99.90;;;;;;5130004;28;20285;-83
2021/12/16 13:15:39;;;;;;;9.60;9.30;;;8.40;99.90;;;;;;5129826;28;20232;-83
2021/12/16 13:24:16;;;;;;;9.07;8.83;;;8.60;99.90;;;;;;5136273;28;20209;-82
2021/12/16 13:27:01;;;;;;;8.83;8.63;;;8.50;99.90;;;;;;5131631;28;20276;-82
2021/12/16 13:29:35;;;;;;;8.90;8.70;;;8.50;99.90;;;;;;5122718;28;20267;-82
2021/12/16 13:32:13;;;;;;;8.57;8.37;;;8.60;99.90;;;;;;5123083;28;20229;-83
2021/12/16 13:34:57;;;;;;;8.57;8.37;;;8.60;99.90;;;;;;5139639;27;20276;-80
2021/12/16 13:37:33;;;;;;;8.77;8.57;;;8.60;99.90;;;;;;5127103;28;20225;-82
2021/12/16 13:40:06;;;;;;;8.60;8.40;;;8.60;99.90;;;;;;5123982;28;20235;-81
2021/12/16 13:42:44;;;;;;;8.77;8.57;;;8.60;99.90;;;;;;5123366;28;20241;-82
2021/12/16 13:45:23;;;;;;;9.90;9.60;;;8.60;99.90;;;;;;5122620;28;20282;-82
2021/12/16 13:48:05;;;;;;;9.47;9.17;;;8.60;99.90;;;;;;5124072;28;20239;-80
2021/12/16 14:05:50;;;;;;;9.60;9.30;;;8.60;99.90;;;;;;5123049;28;20244;-81
2021/12/16 14:08:38;;;;;;;9.87;9.57;;;8.60;99.90;;;;;;5127090;28;20263;-81
2021/12/16 14:17:12;;;;;;;9.70;9.40;;;8.70;99.90;;;;;;5075812;28;20220;-81
2021/12/16 14:25:28;;;;;;;9.40;9.10;;;8.60;99.90;;;;;;5124489;28;20305;-82
2021/12/16 14:31:29;;;;;;;9.60;9.30;;;8.60;99.90;;;;;;5060426;28;20229;-81
2021/12/16 14:40:09;;;;;;;9.40;9.10;;;8.50;99.90;;;;;;5059889;28;20233;-82
2021/12/16 14:43:00;;;;;;;9.87;9.57;;;8.40;99.90;;;;;;5060419;28;20231;-82
2021/12/16 14:45:37;;;;;;;9.57;9.27;;;8.40;99.90;;;;;;5107763;28;20290;-82
2021/12/16 14:48:25;;;;;;;9.50;9.20;;;8.40;99.90;;;;;;5124259;28;20288;-82
2021/12/16 14:53:44;;;;;;;9.30;9.00;;;8.40;99.90;;;;;;5122356;28;20221;-82
2021/12/16 14:56:19;;;;;;;9.20;8.90;;;8.30;99.90;;;;;;5124236;28;20285;-82
2021/12/16 14:58:53;;;;;;;9.13;8.83;;;8.30;99.90;;;;;;5118196;28;20217;-82
2021/12/16 15:01:25;;;;;;;9.10;8.80;;;8.30;99.90;;;;;;5124376;28;20322;-82
2021/12/16 15:03:54;;;;;;;9.10;8.80;;;8.40;99.90;;;;;;5125141;28;20233;-81
2021/12/16 15:06:29;;;;;;;9.30;9.00;;;8.40;99.90;;;;;;5123556;28;20239;-82
2021/12/16 15:09:10;;;;;;;9.53;9.23;;;8.40;99.90;;;;;;5124449;28;20232;-82
2021/12/16 15:11:47;;;;;;;9.30;9.00;;;8.40;99.90;;;;;;5123962;28;20228;-82
2021/12/16 15:14:29;;;;;;;9.30;9.00;;;8.40;99.90;;;;;;5125382;28;20247;-81
2021/12/16 15:17:06;;;;;;;9.50;9.20;;;8.40;99.90;;;;;;5124136;28;20224;-82
2021/12/16 15:36:39;;;;;;;8.53;8.33;;;7.90;99.90;;;;;;5142044;27;20204;-80
2021/12/16 15:39:38;;;;;;;8.80;8.60;;;7.90;99.90;;;;;;5168411;22;20286;-84
2021/12/16 15:45:03;;;;;;;8.90;8.70;;;7.90;99.90;;;;;;5119591;28;20228;-83
2021/12/16 15:47:40;;;;;;;8.70;8.50;;;7.90;99.90;;;;;;5113050;28;20233;-81
2021/12/16 15:50:09;;;;;;;8.90;8.70;;;8.00;99.90;;;;;;5079213;28;20291;-81
2021/12/16 15:52:43;;;;;;;9.10;8.80;;;8.00;99.90;;;;;;5079688;28;20226;-82
2021/12/16 15:55:15;;;;;;;8.97;8.70;;;8.00;99.90;;;;;;5094673;28;20233;-81
2021/12/16 15:57:46;;;;;;;8.87;8.67;;;8.00;99.90;;;;;;5092151;28;20257;-82
2021/12/16 16:00:20;;;;;;;8.77;8.57;;;8.00;99.90;;;;;;5086535;28;20234;-81
2021/12/16 16:02:50;;;;;;;8.80;8.60;;;8.00;99.90;;;;;;5085186;28;20237;-82
2021/12/16 16:05:20;;;;;;;8.87;8.67;;;8.00;99.90;;;;;;5085801;28;20238;-81
2021/12/16 16:07:48;;;;;;;9.00;8.80;;;8.00;99.90;;;;;;5086962;28;20300;-83
2021/12/16 16:10:16;;;;;;;8.80;8.60;;;8.00;99.90;;;;;;5083323;28;20226;-82
2021/12/16 16:12:44;;;;;;;8.67;8.47;;;8.00;99.90;;;;;;5100489;28;20218;-83
2021/12/16 16:15:19;;;;;;;8.80;8.60;;;8.00;99.90;;;;;;5102100;28;20230;-83
2021/12/16 16:18:11;;;;;;;8.63;8.43;;;8.00;99.90;;;;;;5102504;28;20233;-82
2021/12/16 16:20:41;;;;;;;8.83;8.63;;;8.00;99.90;;;;;;5101925;28;20230;-82
2021/12/16 16:23:12;;;;;;;8.60;8.40;;;8.00;99.90;;;;;;5113584;28;20232;-83
2021/12/16 16:25:43;;;;;;;8.57;8.37;;;8.00;99.90;;;;;;5123419;28;20228;-84
2021/12/16 16:28:14;;;;;;;8.77;8.57;;;8.10;99.90;;;;;;5127536;27;20217;-83
2021/12/16 16:30:43;;;;;;;8.50;8.30;;;8.10;99.90;;;;;;5122099;27;20235;-84